Tiempo atmosférico en la estación meteorológica de Almería Aeropuerto, Almería (21 m.)

Fecha
DESCASC
Temp. máxima en grados centígrados (hora)
DESCASC
Temp. mínima en grados centígrados (hora)
DESCASC
Temp. media en grados centígrados
DESCASC
Racha de viento máxima en m/sg (hora)
DESCASC
Velocidad máxima media en intervalos de 10 minutos(hora)
DESCASC
Precipitaciones diarias en mm
DESCASC
Precipitaciones de 00:00 a 06:00 en mm
DESCASC
Precipitaciones de 06:00 a 12:00 en mm
DESCASC
Precipitaciones de 12:00 a 18:00 en mm
DESCASC
Precipitaciones de 18:00 a 24:00 en mm
DESCASC
21-08-2017 33.8 (12:30) 24.6 (05:00) 29.2 14.44 (14:40) 10.56 (19:30) 0 0 0 0 0
20-08-2017 34.8 (13:40) 23.7 (08:00) 29.3 16.94 (17:30) 11.39 (15:20) 0 0 0 0 0
19-08-2017 35.6 (17:00) 23.8 (04:00) 29.7 12.78 (18:50) 9.72 (19:40) 0 0 0 0 0
18-08-2017 30.6 (13:50) 24.3 (05:10) 27.4 7.78 (14:50) 5.83 (14:50) 0 0 0 0 0
17-08-2017 31.9 (11:40) 24.8 (00:00) 28.3 8.89 (11:10) 6.39 (13:40) 0 0 0 0 0
16-08-2017 29.8 (15:00) 24.8 (00:00) 27.3 6.67 (15:20) 5 (15:20) 0 0 0 0 0
15-08-2017 32.6 (11:50) 24.5 (00:00) 28.5 10.83 (12:40) 8.33 (13:10) 0 0 0 0 0
14-08-2017 34.7 (14:00) 23.6 (07:40) 29.2 16.39 (10:50) 12.78 (18:00) 0 0 0 0 0
13-08-2017 33.3 (14:10) 21.3 (00:00) 27.3 15.28 (15:40) 12.22 (17:00) 0 0 0 0 0
12-08-2017 33 (14:30) 22.6 (00:00) 27.8 17.5 (13:50) 11.39 (13:40) 0 0 0 0 0
11-08-2017 32.5 (15:30) 22.5 (00:00) 27.5 13.89 (19:10) 10.28 (19:30) 0 0 0 0 0
10-08-2017 30.8 (15:30) 24.2 (00:00) 27.5 15.28 (11:10) 11.67 (18:50) 0 0 0 0 0
09-08-2017 30.8 (10:30) 24.7 (00:00) 27.8 7.22 (12:00) 5.83 (12:10) 0 0 0 0 0
08-08-2017 32.1 (18:30) 26.4 (00:00) 29.2 11.39 (18:20) 6.67 (13:30) 0 0 0 0 0
07-08-2017 31.9 (13:10) 26.6 (00:00) 29.3 6.67 (12:40) 5.28 (13:00) 0 0 0 0 0
06-08-2017 32.7 (18:20) 24.6 (00:00) 28.7 7.22 (16:20) 5.56 (16:20) 0 0 0 0 0
05-08-2017 -- (--) -- (--) -- -- (--) -- (--) -- -- 0 0 0
04-08-2017 31.8 (16:40) 23.8 (00:00) 27.8 5 (12:50) 3.61 (13:20) 0 0 0 0 0
03-08-2017 31.2 (16:30) 24.9 (00:00) 28.1 5.83 (15:10) 3.89 (12:40) 0 0 0 0 0
02-08-2017 32 (15:30) 26 (00:00) 29 7.78 (00:20) 4.72 (00:10) 0 0 0 0 0
01-08-2017 29.9 (10:10) 25.3 (00:00) 27.6 12.78 (22:40) 8.33 (22:40) 0 0 0 0 0
31-07-2017 30.3 (15:10) 24.3 (00:00) 27.3 5.83 (11:30) 4.72 (11:40) 0 0 0 0 0
30-07-2017 31.7 (19:30) 24 (00:00) 27.9 6.67 (08:30) 4.17 (16:40) 0 0 0 0 0
29-07-2017 30.9 (10:00) 23.3 (00:00) 27.1 5.83 (13:10) 4.17 (13:40) 0 0 0 0 0
28-07-2017 30.2 (12:50) 23 (00:00) 26.6 5.83 (13:40) 4.17 (14:10) 0 0 0 0 0
27-07-2017 30.1 (15:40) 23.7 (00:00) 26.9 6.11 (13:00) 4.44 (12:20) 0 0 0 0 0
26-07-2017 29.6 (11:10) 24.8 (00:00) 27.2 6.11 (11:50) 5 (12:00) 0 0 0 0 0
25-07-2017 33.9 (12:50) 23 (00:00) 28.5 11.39 (13:30) 7.22 (13:10) 0 0 0 0 0
24-07-2017 28.6 (16:00) 20.3 (00:00) 24.4 5.83 (14:30) 3.89 (15:20) 0 0 0 0 0
23-07-2017 28.6 (15:00) 23.7 (00:00) 26.2 11.67 (01:00) 8.61 (01:00) 0 0 0 0 0

Gráficas

Temp. máximas Temp. mínimas Temp. medias Precipitaciones Rachas de viento máximas Velocidades máximas media en intervalos de 10 minutos

Datos horarios

Fecha y hora oficial Temperatura (ºC) Velocidad del viento (km/h) Dirección del viento Racha (km/h) Dirección de racha Precipitación (mm) Presión (hPa) Tendencia (hPa) Humedad (%)
2017-08-21 23:00:00 26.4 18 Este 33 Este 0 1015.4 2.3 67
2017-08-21 22:00:00 26.7 26 Este 41 Este 0 1014.6 1.3 67
2017-08-21 21:00:00 27.7 29 Este 46 Este 0 1013.7 0.5 60
2017-08-21 20:00:00 29.3 37 Este 50 Este 0 1013.1 -0.5 52
2017-08-21 19:00:00 31.1 35 Este 48 Este 0 1013.3 -0.6 46
2017-08-21 18:00:00 32.5 33 Este 48 Este 0 1013.2 -1.3 42
2017-08-21 17:00:00 33 33 Este 50 Este 0 1013.6 -1.2 41
2017-08-21 16:00:00 33.1 35 Este 52 Este 0 1013.9 -1.4 41
2017-08-21 15:00:00 33.3 35 Este 52 Este 0 1014.5 -1.4 42
2017-08-21 14:00:00 33.3 34 Este 50 Este 0 1014.8 -1.6 42
2017-08-21 13:00:00 33.1 31 Este 46 Este 0 1015.3 -1.1 36
2017-08-21 12:00:00 32.3 31 Este 42 Este 0 1015.9 -0.4 32
2017-08-21 11:00:00 31.4 27 Este 37 Este 0 1016.4 0.3 31
2017-08-21 10:00:00 30.3 20 Nordeste 30 Nordeste 0 1016.4 0.8 33
2017-08-21 09:00:00 27.2 11 Noroeste 21 Noroeste 0 1016.3 0.5 49
2017-08-21 08:00:00 25.3 4 Nordeste 22 Noroeste 0 1016.1 0.3 59
2017-08-21 07:00:00 25.1 12 Norte 26 Nordeste 0 1015.6 -0.3 66
2017-08-21 06:00:00 25.8 7 Norte 15 Norte 0 1015.8 -0.2 64
2017-08-21 05:00:00 24.8 5 Nordeste 13 Nordeste 0 1015.8 -0.4 70
2017-08-21 04:00:00 26 5 Norte 18 Norte 0 1015.9 -0.4 66
2017-08-21 03:00:00 26.5 2 Norte 17 Norte 0 1016 -0.5 65
2017-08-21 02:00:00 27 3 Nordeste 17 Norte 0 1016.2 0.2 54
2017-08-21 01:00:00 27 9 Nordeste 28 Este 0 1016.3 1.2 59
2017-08-21 00:00:00 27.1 24 Nordeste 37 Nordeste 0 1016.5 2.1 61
2017-08-20 23:00:00 26.7 26 Este 45 Nordeste 0 1016 2.1 70
2017-08-20 22:00:00 26.8 32 Este 55 Este 0 1015.1 1.3 71
2017-08-20 21:00:00 27.6 36 Este 52 Este 0 1014.4 0.5 68
2017-08-20 20:00:00 29.6 35 Este 54 Nordeste 0 1013.9 -0.3 59
2017-08-20 19:00:00 30.7 39 Este 54 Este 0 1013.8 -0.8 56
2017-08-20 18:00:00 32.5 38 Este 61 Este 0 1013.9 -1.1 50
2017-08-20 17:00:00 33.6 39 Este 54 Este 0 1014.2 -0.9 48
2017-08-20 16:00:00 34.2 39 Este 55 Este 0 1014.6 -1.1 47
2017-08-20 15:00:00 34.2 41 Este 55 Este 0 1015 -1.1 47
2017-08-20 14:00:00 33.9 41 Este 58 Este 0 1015.1 -1.3 47
2017-08-20 13:00:00 33.5 36 Nordeste 48 Nordeste 0 1015.7 -0.8 43
2017-08-20 12:00:00 32.1 38 Este 52 Este 0 1016.1 -0.1 47
2017-08-20 11:00:00 30.7 33 Este 46 Este 0 1016.4 0.9 52
2017-08-20 10:00:00 28.5 0 Calma 5 Sudeste 0 1016.5 1.5 57
2017-08-20 09:00:00 26.7 0 Calma 18 Noroeste 0 1016.2 1.6 62
2017-08-20 08:00:00 23.9 0 Calma 13 Nordeste 0 1015.5 1.1 70
2017-08-20 07:00:00 24.8 0 Calma 13 Este 0 1015 0.6 70
2017-08-20 06:00:00 25.5 5 Nordeste 22 Norte 0 1014.6 -0.2 69
2017-08-20 05:00:00 25.5 12 Nordeste 18 Nordeste 0 1014.4 -0.4 70
2017-08-20 04:00:00 26.1 3 Norte 13 Norte 0 1014.4 -0.6 70
2017-08-20 03:00:00 27.1 2 Norte 13 Norte 0 1014.8 -0.2 65
2017-08-20 02:00:00 27.4 3 Norte 22 Este 0 1014.8 0 62
2017-08-20 01:00:00 27.6 9 Este 30 Este 0 1015 1.1 63
2017-08-20 00:00:00 27.2 18 Este 30 Este 0 1015 2 69
2017-08-19 23:00:00 27.5 23 Este 37 Este 0 1014.8 2.5 67
2017-08-19 22:00:00 27.7 29 Este 42 Nordeste 0 1013.9 2 69
2017-08-19 21:00:00 28.8 31 Este 45 Este 0 1013 1.1 62
2017-08-19 20:00:00 31.2 33 Este 46 Nordeste 0 1012.3 0.1 50
2017-08-19 19:00:00 34 31 Este 46 Este 0 1011.9 -0.7 41
2017-08-19 18:00:00 35.2 28 Este 41 Este 0 1011.9 -1.3 41
2017-08-19 17:00:00 35.3 27 Este 41 Este 0 1012.2 -1.7 44
2017-08-19 16:00:00 34.7 26 Este 41 Este 0 1012.6 -1.5 46
2017-08-19 15:00:00 33.4 22 Este 37 Sudeste 0 1013.2 -1 51
2017-08-19 14:00:00 30.9 14 Sudoeste 26 Sudoeste 0 1013.9 -0.3 64
2017-08-19 13:00:00 29.7 19 Sudoeste 28 Sudoeste 0 1014.1 0.1 68
2017-08-19 12:00:00 31.6 17 Este 30 Este 0 1014.2 1 55
2017-08-19 11:00:00 29.7 21 Este 30 Este 0 1014.2 1.5 62
2017-08-19 10:00:00 26.6 20 Este 28 Este 0 1014 1.8 77
2017-08-19 09:00:00 25.1 14 Nordeste 22 Nordeste 0 1013.2 1.3 84
2017-08-19 08:00:00 25.6 13 Norte 18 Norte 0 1012.7 0.8 82
2017-08-19 07:00:00 25.8 0 Calma 5 Sudeste 0 1012.2 0.2 84
2017-08-19 06:00:00 25.7 2 Norte 5 Norte 0 1011.9 -0.1 84
2017-08-19 05:00:00 25 4 Nordeste 13 Nordeste 0 1011.9 -0.3 84
2017-08-19 04:00:00 23.9 3 Este 8 Sudeste 0 1012 -0.9 83
2017-08-19 03:00:00 25.1 0 Calma 5 Norte 0 1012 -1.1 84
2017-08-19 02:00:00 25.6 3 Norte 5 Nordeste 0 1012.2 -0.8 83
2017-08-19 01:00:00 26.2 3 Norte 8 Nordeste 0 1012.9 0.6 80
2017-08-19 00:00:00 26.3 0 Calma 4 Sur 0 1013.1 1.3 84
2017-08-18 23:00:00 26.1 0 Calma 5 Sudoeste 0 1013 1.5 81
2017-08-18 22:00:00 26.4 4 Sudoeste 8 Sudoeste 0 1012.3 0.5 81
2017-08-18 21:00:00 26.7 5 Sudoeste 11 Sur 0 1011.8 -0.4 80
2017-08-18 20:00:00 27.9 5 Sudoeste 13 Sudoeste 0 1011.5 -1.2 76
2017-08-18 19:00:00 28.6 8 Sur 17 Sur 0 1011.8 -1.4 73
2017-08-18 18:00:00 29.1 12 Sur 21 Sur 0 1012.2 -1.3 71
2017-08-18 17:00:00 29.7 16 Sur 22 Sur 0 1012.7 -1.1 70
2017-08-18 16:00:00 30 18 Sur 26 Sur 0 1013.2 -0.8 69
2017-08-18 15:00:00 30.3 20 Sur 28 Sudoeste 0 1013.5 -0.9 68
2017-08-18 14:00:00 30.3 15 Sur 21 Sur 0 1013.8 -1 67
2017-08-18 13:00:00 29.9 15 Sur 22 Sudoeste 0 1014 -1 68
2017-08-18 12:00:00 29.4 12 Sudoeste 18 Sudoeste 0 1014.4 -0.6 69
2017-08-18 11:00:00 28.4 7 Sur 13 Sur 0 1014.8 -- 72
2017-08-18 10:00:00 27.5 6 Sur 17 Nordeste 0 1015 1.2 77
2017-08-18 09:00:00 25.8 0 Calma 4 Norte 0 1015 1.4 83
2017-08-18 08:00:00 24.9 0 Calma 11 Nordeste 0 -- -- 86
2017-08-18 07:00:00 24.5 8 Nordeste 15 Nordeste 0 1013.8 -0.3 86
2017-08-18 06:00:00 24.6 8 Nordeste 13 Nordeste 0 1013.6 -1.1 86
2017-08-18 05:00:00 24.5 3 Nordeste 5 Este 0 1013.6 -1.6 87
2017-08-18 04:00:00 24.6 0 Calma 4 Este 0 1014.1 -1 82
2017-08-18 03:00:00 25.7 0 Calma 5 Nordeste 0 1014.7 -0.3 80
2017-08-18 02:00:00 26.3 0 Calma 8 Nordeste 0 1015.2 0.5 78
2017-08-18 01:00:00 26.6 3 Norte 5 Norte 0 1015.1 0.9 77
2017-08-18 00:00:00 26.8 0 Calma 15 Este 0 1015 1.1 75
2017-08-17 23:00:00 27.3 6 Este 18 Este 0 1014.7 1 74
2017-08-17 22:00:00 27.7 0 Calma 5 Sudeste 0 1014.2 0.3 73
2017-08-17 21:00:00 28 4 Sudoeste 13 Sudoeste 0 1013.9 -0.3 75
2017-08-17 20:00:00 29.1 11 Sudoeste 18 Oeste 0 1013.7 -0.7 70
2017-08-17 19:00:00 29.8 14 Sudoeste 21 Sudoeste 0 1013.9 -1.1 68
2017-08-17 18:00:00 30.4 15 Sudoeste 21 Sudoeste 0 1014.2 -1.4 68
2017-08-17 17:00:00 31.2 15 Sur 26 Sur 0 1014.4 -1.8 66
2017-08-17 16:00:00 31.4 18 Sur 26 Sur 0 1015 -1.4 66
2017-08-17 15:00:00 30.6 18 Sur 24 Sur 0 1015.6 -1 69
2017-08-17 14:00:00 30.9 21 Sur 30 Sur 0 1016.2 0 67
2017-08-17 13:00:00 31.6 19 Sur 24 Sur 0 1016.4 0.3 61
2017-08-17 12:00:00 30 20 Sur 32 Este 0 1016.6 0.6 70
2017-08-17 11:00:00 30.9 14 Este 26 Este 0 1016.2 0.7 58
2017-08-17 10:00:00 28.9 18 Este 26 Este 0 1016.1 0.8 67
2017-08-17 09:00:00 26.9 6 Este 15 Nordeste 0 1016 1 77
2017-08-17 08:00:00 25.3 8 Nordeste 18 Nordeste 0 1015.5 0.6 81
2017-08-17 07:00:00 25 10 Nordeste 18 Nordeste 0 1015.3 0.6 82
2017-08-17 06:00:00 24.9 5 Norte 8 Norte 0 1015 0.2 85
2017-08-17 05:00:00 25 2 Norte 8 Nordeste 0 1014.9 -0.2 84
2017-08-17 04:00:00 25.2 3 Nordeste 5 Nordeste 0 1014.7 -0.4 84
2017-08-17 03:00:00 25.5 0 Calma 2 Norte 0 1014.8 -0.6 83
2017-08-17 02:00:00 25.8 0 Calma 5 Sudoeste 0 1015.1 -0.2 83
2017-08-17 01:00:00 26.1 4 Sudoeste 11 Oeste 0 1015.1 0.1 82
2017-08-17 00:00:00 26.4 6 Sudoeste 11 Sudoeste 0 1015.4 1.2 81
2017-08-16 23:00:00 26.4 4 Sudoeste 8 Sudoeste 0 1015.3 1.4 81
2017-08-16 22:00:00 26.5 3 Sudoeste 8 Sudoeste 0 1015 0.9 81
2017-08-16 21:00:00 26.9 3 Sudoeste 13 Sudoeste 0 1014.2 -0.2 80
2017-08-16 20:00:00 28 8 Sudoeste 17 Sur 0 1013.9 -0.7 75
2017-08-16 19:00:00 28.9 12 Sur 18 Sudoeste 0 1014.1 -1.1 73
2017-08-16 18:00:00 29.2 12 Sudoeste 21 Sudoeste 0 1014.4 -1.3 71
2017-08-16 17:00:00 29.1 13 Sudoeste 21 Sudoeste 0 1014.6 -1.5 72
2017-08-16 16:00:00 29.1 16 Sudoeste 24 Sur 0 1015.2 -1.2 71
2017-08-16 15:00:00 29.5 17 Sur 22 Sur 0 1015.7 -0.7 69
2017-08-16 14:00:00 29.1 17 Sur 22 Sur 0 1016.1 -0.2 71
2017-08-16 13:00:00 28.8 16 Sudoeste 21 Sudoeste 0 1016.4 0.3 73
2017-08-16 12:00:00 28.2 14 Sudoeste 21 Sudoeste 0 1016.4 0.4 76
2017-08-16 11:00:00 27.1 14 Sudoeste 18 Sudoeste 0 1016.3 0.7 81
2017-08-16 10:00:00 26.2 14 Sudoeste 18 Sur 0 1016.1 1.1 86
2017-08-16 09:00:00 25.9 12 Sudoeste 17 Sudoeste 0 1016 1.4 87
2017-08-16 08:00:00 25.4 5 Este 13 Este 0 1015.6 1 84
2017-08-16 07:00:00 24.8 8 Nordeste 11 Nordeste 0 1015 0 83
2017-08-16 06:00:00 25.1 4 Nordeste 5 Nordeste 0 1014.6 -0.7 83
2017-08-16 05:00:00 25.3 2 Nordeste 8 Nordeste 0 1014.6 -0.7 83
2017-08-16 04:00:00 25.4 5 Nordeste 8 Nordeste 0 1015 -0.3 83
2017-08-16 03:00:00 25.9 0 Calma 5 Sur 0 1015.3 -0.2 81
2017-08-16 02:00:00 26.2 2 Sudoeste 8 Oeste 0 1015.3 -0.2 79
2017-08-16 01:00:00 26.2 6 Sudoeste 11 Oeste 0 1015.3 0.3 80
2017-08-16 00:00:00 26.4 3 Sudoeste 8 Sudoeste 0 1015.5 1.4 80
2017-08-15 23:00:00 26.6 4 Oeste 15 Sur 0 1015.5 1.9 78
2017-08-15 22:00:00 26.8 11 Sur 18 Sur 0 1015 1.8 76
2017-08-15 21:00:00 27.4 9 Sur 18 Sudoeste 0 1014.1 0.9 74
2017-08-15 20:00:00 28.1 14 Sudoeste 22 Sur 0 1013.6 0.2 76
2017-08-15 19:00:00 28.9 18 Sudoeste 32 Sudoeste 0 1013.2 -0.4 76
2017-08-15 18:00:00 29.7 25 Sudoeste 32 Sur 0 1013.2 -1 74
2017-08-15 17:00:00 29.7 24 Sudoeste 32 Sudoeste 0 1013.4 -1.4 70
2017-08-15 16:00:00 29.6 22 Sudoeste 28 Sudoeste 0 1013.6 -1.3 69
2017-08-15 15:00:00 29.6 20 Sudoeste 33 Sudoeste 0 1014.2 0.2 69
2017-08-15 14:00:00 29.9 24 Sudoeste 39 Sudoeste 0 1014.8 0.6 67
2017-08-15 13:00:00 29.6 30 Sudoeste 39 Sudoeste 0 1014.9 1.2 68
2017-08-15 12:00:00 30.5 15 Sudoeste 26 Este 0 1014 0 63
2017-08-15 11:00:00 30.2 8 Sudeste 18 Sur 0 1014.2 -0.3 55
2017-08-15 10:00:00 27.8 12 Norte 21 Noroeste 0 1013.7 -0.3 67
2017-08-15 09:00:00 25.9 4 Norte 13 Noroeste 0 1014 1 80
2017-08-15 08:00:00 24.9 8 Oeste 28 Sudoeste 0 1014.5 1.8 84
2017-08-15 07:00:00 24.9 21 Sudoeste 28 Sudoeste 0 1014 1.7 88
2017-08-15 06:00:00 25.1 16 Sudoeste 24 Sudoeste 0 1013 0.4 86
2017-08-15 05:00:00 25.5 19 Oeste 24 Oeste 0 1012.7 -1.1 80
2017-08-15 04:00:00 25 8 Nordeste 18 Nordeste 0 1012.3 -1.6 71
2017-08-15 03:00:00 25.4 0 Calma 13 Nordeste 0 1012.6 -1.6 69
2017-08-15 02:00:00 25.9 8 Este 26 Nordeste 0 1013.8 0.4 67
2017-08-15 01:00:00 26.4 11 Este 32 Este 0 1013.9 1.8 65
2017-08-15 00:00:00 26.5 19 Este 37 Este 0 1014.2 2.9 65
2017-08-14 23:00:00 26.3 24 Este 46 Este 0 1013.4 3 66
2017-08-14 22:00:00 27 31 Este 41 Nordeste 0 1012.1 1.8 64
2017-08-14 21:00:00 27.6 29 Este 48 Este 0 1011.3 0.8 64
2017-08-14 20:00:00 29.7 33 Este 54 Este 0 1010.4 0 55
2017-08-14 19:00:00 30.3 42 Este 59 Este 0 1010.3 -0.3 53
2017-08-14 18:00:00 31.7 46 Este 58 Este 0 1010.5 -0.8 47
2017-08-14 17:00:00 33.3 41 Este 59 Este 0 1010.4 -1.7 42
2017-08-14 16:00:00 33.2 43 Este 58 Este 0 1010.6 -2.2 41
2017-08-14 15:00:00 33.2 41 Este 58 Este 0 1011.3 -1.8 42
2017-08-14 14:00:00 34.4 32 Nordeste 52 Nordeste 0 1012.1 -1 31
2017-08-14 13:00:00 32.7 35 Este 52 Este 0 1012.8 -0.4 37
2017-08-14 12:00:00 31 37 Este 52 Este 0 1013.1 -0.1 40
2017-08-14 11:00:00 29.6 42 Este 59 Nordeste 0 1013.1 0.5 41
2017-08-14 10:00:00 28.6 28 Este 42 Este 0 1013.2 0.6 42
2017-08-14 09:00:00 26.1 2 Nordeste 17 Norte 0 1013.2 1.6 38
2017-08-14 08:00:00 24.6 6 Norte 18 Noroeste 0 1012.6 1.3 44
2017-08-14 07:00:00 24.7 11 Nordeste 32 Norte 0 1012.6 0.5 41
2017-08-14 06:00:00 25.6 14 Noroeste 32 Noroeste 0 1011.6 -1.6 46
2017-08-14 05:00:00 25.9 18 Noroeste 30 Noroeste 0 1011.3 -2.4 51
2017-08-14 04:00:00 25.5 19 Noroeste 33 Noroeste 0 1012.1 -1.7 57
2017-08-14 03:00:00 25.2 5 Noroeste 15 Norte 0 1013.2 -0.9 63
2017-08-14 02:00:00 25 4 Este 32 Este 0 1013.7 0.1 68
2017-08-14 01:00:00 25.3 24 Este 39 Este 0 1013.8 1.5 69
2017-08-14 00:00:00 25.4 22 Este 42 Este 0 1014.1 2.6 69
2017-08-13 23:00:00 25.7 31 Este 48 Este 0 1013.6 2.2 68
2017-08-13 22:00:00 26.2 36 Este 55 Nordeste 0 1012.3 1.1 65
2017-08-13 21:00:00 26.5 32 Este 54 Este 0 1011.5 0 65
2017-08-13 20:00:00 28.1 41 Este 55 Este 0 1011.4 -0.2 58
2017-08-13 19:00:00 30 41 Este 54 Este 0 1011.2 -1.1 51
2017-08-13 18:00:00 31.7 37 Este 54 Este 0 1011.5 -1.7 44
2017-08-13 17:00:00 32.4 44 Este 55 Este 0 1011.6 -2.1 39
2017-08-13 16:00:00 32.7 40 Este 55 Este 0 1012.3 -2 37
2017-08-13 15:00:00 32.7 38 Este 52 Este 0 1013.2 -1.4 35
2017-08-13 14:00:00 32.7 35 Nordeste 52 Este 0 1013.7 -1.3 32
2017-08-13 13:00:00 31.8 32 Nordeste 50 Este 0 1014.3 -0.5 38
2017-08-13 12:00:00 30.6 34 Este 46 Este 0 1014.6 -0.1 40
2017-08-13 11:00:00 29.3 30 Este 42 Este 0 1015 0.2 45
2017-08-13 10:00:00 28.3 5 Oeste 39 Norte 0 1014.8 0.3 38
2017-08-13 09:00:00 26.4 27 Nordeste -- -- -- 1014.7 0.2 48
2017-08-13 08:00:00 22.3 3 Nordeste 15 Nordeste 0 1014.8 0.4 61
2017-08-13 07:00:00 22.4 5 Nordeste 11 Norte 0 1014.5 -0.1 62
2017-08-13 06:00:00 22.7 5 Nordeste 22 Noroeste 0 1014.5 -0.8 64
2017-08-13 05:00:00 24.4 11 Noroeste 30 Noroeste 0 1014.4 -1.5 58
2017-08-13 04:00:00 24.4 20 Noroeste 28 Noroeste 0 1014.6 -1.2 64
2017-08-13 03:00:00 24.4 5 Norte 17 Noroeste 0 1015.3 -0.5 63
2017-08-13 02:00:00 24.8 8 Nordeste 39 Este 0 1015.9 0.2 58
2017-08-13 01:00:00 24.9 28 Este 41 Este 0 1015.8 0.6 67
2017-08-13 00:00:00 24.9 27 Este 37 Este 0 1015.8 0.9 62
2017-08-12 23:00:00 25 21 Nordeste 32 Nordeste 0 1015.7 1 62
2017-08-12 22:00:00 25.5 25 Nordeste 42 Nordeste 0 1015.2 0.2 62
2017-08-12 21:00:00 27 32 Nordeste 46 Este 0 1014.9 -0.6 55
2017-08-12 20:00:00 29.2 33 Este 50 Nordeste 0 1014.7 -1.1 43
2017-08-12 19:00:00 29.7 39 Este 54 Este 0 1015 -0.7 43
2017-08-12 18:00:00 30.9 34 Este 55 Este 0 1015.5 -0.3 42
2017-08-12 17:00:00 30.9 37 Este 52 Este 0 1015.8 -0.2 44
2017-08-12 16:00:00 32.4 32 Este 52 Este 0 1015.7 -0.6 40
2017-08-12 15:00:00 32.3 35 Este 55 Este 0 1015.8 -1.1 35
2017-08-12 14:00:00 32.5 39 Este 63 Este 0 1016 -1.4 30
2017-08-12 13:00:00 31.6 40 Este 54 Este 0 1016.3 -1.2 33
2017-08-12 12:00:00 31 36 Nordeste 50 Nordeste 0 1016.9 -0.6 34
2017-08-12 11:00:00 29.4 32 Nordeste 45 Este 0 1017.4 0.3 38
2017-08-12 10:00:00 28 26 Nordeste 42 Este 0 1017.5 0.9 41
2017-08-12 09:00:00 25.4 12 Noroeste 21 Noroeste 0 1017.5 1.2 54
2017-08-12 08:00:00 23.8 4 Noroeste 26 Noroeste 0 1017.1 0.5 58
2017-08-12 07:00:00 23.3 8 Norte 22 Noroeste 0 1016.6 -0.1 61
2017-08-12 06:00:00 22.7 9 Norte 18 Norte 0 1016.3 -0.4 66
2017-08-12 05:00:00 23.4 5 Norte 13 Norte 0 1016.6 -0.2 65
2017-08-12 04:00:00 23.4 3 Norte 11 Norte 0 1016.7 0.1 63
2017-08-12 03:00:00 24.2 11 Norte 37 Este 0 1016.7 -0.1 62
2017-08-12 02:00:00 24.7 26 Este 35 Este 0 1016.8 0.6 65
2017-08-12 01:00:00 24.7 24 Nordeste 37 Nordeste 0 1016.6 1.1 66
2017-08-12 00:00:00 25 16 Nordeste 39 Este 0 1016.8 2.3 59
2017-08-11 23:00:00 25.4 28 Este 41 Este 0 1016.2 2.2 58
2017-08-11 22:00:00 25.7 21 Este 45 Este 0 1015.5 1.6 61
2017-08-11 21:00:00 26.8 31 Este 50 Este 0 1014.5 0.2 55
2017-08-11 20:00:00 28.5 36 Este 50 Este 0 1014 -0.7 50
2017-08-11 19:00:00 30.2 36 Este 46 Este 0 1013.9 -1.4 40
2017-08-11 18:00:00 31.7 31 Este 46 Este 0 1014.3 -1.7 39
2017-08-11 17:00:00 31.8 32 Este 48 Este 0 1014.7 -1.9 36
2017-08-11 16:00:00 31.9 31 Este 45 Nordeste 0 1015.3 -1.7 35
2017-08-11 15:00:00 31.8 30 Este 48 Este 0 1016 -1.3 36
2017-08-11 14:00:00 31.1 31 Este 46 Sudeste 0 1016.6 -1 40
2017-08-11 13:00:00 31.3 27 Este 45 Este 0 1017 -0.3 33
2017-08-11 12:00:00 30.4 28 Este 42 Este 0 1017.3 -0.1 39
2017-08-11 11:00:00 28.7 23 Este 37 Este 0 1017.6 0.6 47
2017-08-11 10:00:00 27.2 24 Nordeste 35 Nordeste 0 1017.3 0.6 55
2017-08-11 09:00:00 25.3 8 Norte 18 Norte 0 1017.4 0.7 63
2017-08-11 08:00:00 23.7 0 Calma 13 Norte 0 1017 0.1 69
2017-08-11 07:00:00 22.6 0 Calma 11 Norte 0 1016.7 -0.7 72
2017-08-11 06:00:00 23.2 7 Norte 13 Norte 0 1016.7 -1.1 72
2017-08-11 05:00:00 24.1 7 Norte 15 Norte 0 1016.9 -1.6 70
2017-08-11 04:00:00 24.5 5 Nordeste 17 Noroeste 0 1017.4 -1.3 70
2017-08-11 03:00:00 24.5 13 Nordeste 26 Este 0 1017.8 -0.4 73
2017-08-11 02:00:00 24.6 18 Este 26 Este 0 1018.5 0.8 73
2017-08-11 01:00:00 24.2 18 Este 35 Este 0 1018.7 1.7 75
2017-08-11 00:00:00 24.3 24 Este 37 Este 0 1018.2 1.7 73
2017-08-10 23:00:00 24.4 25 Este 45 Este 0 1017.7 1.7 73
2017-08-10 22:00:00 24.6 30 Este 46 Este 0 1017 1 73
2017-08-10 21:00:00 25.2 33 Este 52 Este 0 1016.5 0.4 70
2017-08-10 20:00:00 26.7 39 Este 52 Este 0 1016 0 63
2017-08-10 19:00:00 27.5 41 Este 55 Este 0 1016 -0.2 60
2017-08-10 18:00:00 28.9 39 Este 52 Este 0 1016.1 -0.4 56
2017-08-10 17:00:00 29.5 39 Este 50 Este 0 1016 -0.8 51
2017-08-10 16:00:00 29.9 36 Este 52 Este 0 1016.2 -0.6 50
2017-08-10 15:00:00 30.1 37 Este 52 Este 0 1016.5 -0.3 49
2017-08-10 14:00:00 29.4 37 Este 55 Este 0 1016.8 0.5 51
2017-08-10 13:00:00 29.6 36 Este 52 Nordeste 0 1016.8 0.9 50
2017-08-10 12:00:00 27.9 40 Nordeste 55 Nordeste 0 1016.8 1.7 54
2017-08-10 11:00:00 27.3 40 Este 54 Este 0 1016.3 2 60
2017-08-10 10:00:00 26.6 32 Nordeste 52 Este 0 1015.9 2.3 63
2017-08-10 09:00:00 25.7 35 Este 50 Nordeste 0 1015.1 2.4 71
2017-08-10 08:00:00 25 30 Nordeste 52 Este 0 1014.3 2.1 74
2017-08-10 07:00:00 25.3 41 Nordeste 52 Nordeste 0 1013.6 1.7 77
2017-08-10 06:00:00 25.2 15 Nordeste 41 Este 0 1012.7 1 74
2017-08-10 05:00:00 24.9 4 Norte 11 Este 0 1012.2 1 71
2017-08-10 04:00:00 24.6 5 Este 11 Este 0 1011.9 0.7 72
2017-08-10 03:00:00 24.8 5 Nordeste 13 Nordeste 0 1011.7 0.8 70
2017-08-10 02:00:00 25.5 9 Nordeste 15 Nordeste 0 1011.2 1 69
2017-08-10 01:00:00 26 8 Nordeste 13 Norte 0 1011.2 1.6 68
2017-08-10 00:00:00 26.4 2 Sudoeste 17 Sur 0 1010.9 2.1 66
2017-08-09 23:00:00 26.7 12 Sudoeste 21 Sudoeste 0 1010.2 1.6 68
2017-08-09 22:00:00 27.1 15 Sudoeste 21 Sudoeste 0 1009.6 0.7 66
2017-08-09 21:00:00 27.3 13 Sur 26 Sudoeste 0 1008.8 -0.7 69
2017-08-09 20:00:00 28.3 19 Sudoeste 26 Sur 0 1008.6 -1.1 76
2017-08-09 19:00:00 29.1 9 Sur 17 Sur 0 1008.9 -1.3 68
2017-08-09 18:00:00 29.4 14 Sur 26 Sudoeste 0 1009.5 -1.1 68
2017-08-09 17:00:00 29.5 20 Sudoeste 26 Sudoeste 0 1009.7 -1.3 69
2017-08-09 16:00:00 29.5 18 Sudoeste 22 Sudoeste 0 1010.2 -1.2 69
2017-08-09 15:00:00 29.6 17 Sudoeste 26 Sudoeste 0 1010.6 -1 69
2017-08-09 14:00:00 30 19 Sudoeste 26 Sudoeste 0 1011 -0.4 68
2017-08-09 13:00:00 29.6 20 Sudoeste 26 Sudoeste 0 1011.4 0.2 70
2017-08-09 12:00:00 29.7 21 Sudoeste 26 Sudoeste 0 1011.6 0.6 69
2017-08-09 11:00:00 29.6 15 Sudoeste 18 Sudoeste 0 1011.4 0.8 69
2017-08-09 10:00:00 29.5 0 Calma 21 Noroeste 0 1011.2 1 56
2017-08-09 09:00:00 27.5 11 Norte 21 Noroeste 0 1011 1 60
2017-08-09 08:00:00 25.7 8 Norte 21 Noroeste 0 1010.6 0.7 72
2017-08-09 07:00:00 24.8 8 Norte 11 Norte 0 1010.2 0.3 76
2017-08-09 06:00:00 25.4 0 Calma 5 Sur 0 1010 -0.6 75
2017-08-09 05:00:00 25.4 0 Calma 8 Este 0 1009.9 -0.6 73
2017-08-09 04:00:00 26.3 5 Norte 21 Norte 0 1009.9 -0.8 70
2017-08-09 03:00:00 26.9 7 Norte 18 Este 0 1010.6 0.6 69
2017-08-09 02:00:00 27.4 11 Este 17 Este 0 1010.5 1 76
2017-08-09 01:00:00 26.7 3 Nordeste 13 Nordeste 0 1010.7 2.3 68
2017-08-09 00:00:00 26.6 7 Nordeste -- -- -- 1010 2.7 70
2017-08-08 23:00:00 26.5 12 Este 15 Este 0 1009.5 2.9 72
2017-08-08 22:00:00 27.8 5 Sur 13 Sur 0 1008.4 1.9 72
2017-08-08 21:00:00 28.7 9 Sur 17 Sur 0 1007.3 0.6 69
2017-08-08 20:00:00 30.2 14 Sur 28 Sur 0 1006.6 -0.6 63
2017-08-08 19:00:00 31.1 17 Sur 41 Sur 0 1006.5 -1.4 59
2017-08-08 18:00:00 31.5 9 Sudoeste 30 Oeste 0 1006.7 -1.5 56
2017-08-08 17:00:00 30.8 12 Sur 24 Sur 0 1007.2 -1.1 63
2017-08-08 16:00:00 30.2 21 Sudoeste 26 Sudoeste 0 1007.9 0 65
2017-08-08 15:00:00 29.3 18 Sur 28 Sur 0 1008.2 0.5 73
2017-08-08 14:00:00 29.3 21 Sur 33 Sur 0 1008.3 0.5 76
2017-08-08 13:00:00 29.9 20 Sur 28 Sudoeste 0 1007.9 -0.1 75
2017-08-08 12:00:00 31.3 15 Sur 24 Sudoeste 0 1007.7 -0.3 68
2017-08-08 11:00:00 30.8 15 Sur 24 Sudoeste 0 1007.8 -0.3 73
2017-08-08 10:00:00 29.3 15 Sudoeste 21 Sudoeste 0 1008 -0.2 75
2017-08-08 09:00:00 27.8 11 Oeste 22 Sudoeste 0 1008 0 80
2017-08-08 08:00:00 26.7 13 Oeste 26 Sudoeste 0 1008.1 -0.2 85
2017-08-08 07:00:00 26.6 12 Sudoeste 18 Sudoeste 0 1008.2 -0.3 88
2017-08-08 06:00:00 26.7 11 Sudoeste 18 Oeste 0 1008 -1.1 88
2017-08-08 05:00:00 26.7 4 Noroeste 17 Oeste 0 1008.3 -1.7 85
2017-08-08 04:00:00 27.1 12 Sudoeste 18 Oeste 0 1008.5 -2 87
2017-08-08 03:00:00 27.6 14 Sudoeste 22 Sudoeste 0 1009.1 -1.7 86
2017-08-08 02:00:00 28 17 Sudoeste 22 Sudoeste 0 1010 -1.1 83
2017-08-08 01:00:00 28.1 14 Sudoeste 21 Sudoeste 0 1010.5 -0.2 82
2017-08-08 00:00:00 27.7 11 Sudoeste 17 Sudoeste 0 1010.8 0.9 86
2017-08-07 23:00:00 27.9 7 Sudoeste 17 Sudoeste 0 1011.1 1.8 86
2017-08-07 22:00:00 28.2 9 Sur 15 Sur 0 1010.7 1.4 85
2017-08-07 21:00:00 28.7 4 Sur 13 Sur 0 1009.9 -0.1 82
2017-08-07 20:00:00 29.9 8 Sur 15 Sur 0 1009.3 -1.6 76
2017-08-07 19:00:00 30.7 10 Sur 17 Sur 0 1009.3 -2.3 71
2017-08-07 18:00:00 30.9 9 Sur 17 Sur 0 1010 -2.3 70
2017-08-07 17:00:00 30.9 9 Sudoeste 18 Sur 0 1010.9 -2 71
2017-08-07 16:00:00 31 13 Sur 21 Sur 0 1011.6 -1.4 70
2017-08-07 15:00:00 31.4 14 Sur 21 Sur 0 1012.3 -0.6 69
2017-08-07 14:00:00 31.5 17 Sur 24 Sur 0 1012.9 0.3 70
2017-08-07 13:00:00 31.6 19 Sur 24 Sur 0 1013 0.5 70
2017-08-07 12:00:00 31.5 17 Sur 22 Sur 0 1012.9 0.7 69
2017-08-07 11:00:00 31.5 12 Sur 21 Este 0 1012.6 0.2 65
2017-08-07 10:00:00 29.9 13 Nordeste 21 Nordeste 0 1012.5 -0.4 70
2017-08-07 09:00:00 28.6 4 Este 13 Norte 0 1012.2 -0.3 74
2017-08-07 08:00:00 27.3 6 Norte 13 Norte 0 1012.4 -0.2 80
2017-08-07 07:00:00 26.6 6 Norte 11 Noroeste 0 1012.9 0.4 81
2017-08-07 06:00:00 27 3 Norte 8 Norte 0 1012.5 0 81
2017-08-07 05:00:00 27.1 4 Nordeste 11 Nordeste 0 1012.6 -0.2 81
2017-08-07 04:00:00 27.3 5 Este 13 Este 0 1012.5 -0.5 80
2017-08-07 03:00:00 27.6 6 Este 13 Este 0 1012.5 -0.8 78
2017-08-07 02:00:00 28 8 Este 18 Este 0 1012.8 -0.3 76
2017-08-07 01:00:00 28.4 15 Nordeste 21 Nordeste 0 1013 0.4 74
2017-08-07 00:00:00 28.5 5 Este 17 Nordeste 0 1013.3 1.4 75
2017-08-06 23:00:00 28.8 10 Este 17 Este 0 1013.1 1.8 74
2017-08-06 22:00:00 29.1 2 Noroeste 21 Oeste 0 1012.6 1.4 79
2017-08-06 21:00:00 30.2 8 Sudoeste 17 Oeste 0 1011.9 0.5 73
2017-08-06 20:00:00 31 9 Sudoeste 18 Sudoeste 0 1011.3 -0.3 71
2017-08-06 19:00:00 32 11 Sudoeste 17 Sudoeste 0 1011.2 -0.7 66
2017-08-06 18:00:00 32.2 8 Sur 18 Sur 0 1011.4 -0.9 66
2017-08-06 17:00:00 32.3 13 Sur 26 Sudoeste 0 1011.6 -1.1 67
2017-08-06 16:00:00 31 17 Sudoeste 24 Sudoeste 0 1011.9 -1 75
2017-08-06 15:00:00 30.5 15 Sudoeste 22 Sudoeste 0 1012.3 -0.4 74
2017-08-06 14:00:00 30.4 14 Sudoeste 22 Sudoeste 0 1012.7 0.4 73
2017-08-06 13:00:00 30.7 15 Sur 21 Sur 0 1012.9 0.8 71
2017-08-06 12:00:00 30.3 13 Sur 17 Sur 0 1012.7 0.9 73
2017-08-06 11:00:00 29.5 10 Sur 17 Sur 0 1012.3 0.6 73
2017-08-06 10:00:00 29.4 6 Sur 11 Sur 0 1012.1 0.9 69
2017-08-06 09:00:00 28.2 5 Nordeste 13 Norte 0 1011.8 0.9 71
2017-08-06 08:00:00 25.1 4 Norte 17 Norte 0 1011.7 1 81
2017-08-06 07:00:00 24.8 4 Norte 8 Noroeste 0 1011.2 0.5 82
2017-08-06 06:00:00 25.7 2 Norte 8 Norte 0 1010.9 0 76
2017-08-06 05:00:00 25.7 3 Norte 8 Norte 0 1010.7 -0.6 77
2017-08-06 04:00:00 26.3 5 Norte 8 Norte 0 1010.7 -0.7 85
2017-08-06 03:00:00 26.6 3 Nordeste 8 Nordeste 0 1010.9 -0.3 86
2017-08-06 02:00:00 26.5 4 Nordeste 8 Nordeste 0 1011.3 0.5 85
2017-08-06 01:00:00 26.9 5 Este 8 Este 0 1011.4 1.3 82
2017-08-06 00:00:00 27.6 0 Calma 4 Sudeste 0 1011.2 1.5 86
2017-08-05 23:00:00 28 0 Calma -- -- -- 1010.8 1 85
2017-08-05 22:00:00 28.5 3 Sudoeste 8 Sudoeste 0 1010.1 0 82
2017-08-05 21:00:00 29.3 4 Sudoeste 8 Sudoeste 0 1009.7 -0.7 76
2017-08-05 20:00:00 30.5 4 Sur 13 Sur 0 1009.8 -0.9 70
2017-08-05 19:00:00 31.3 6 Sudoeste 15 Sudoeste 0 1010.1 -1.3 66
2017-08-05 18:00:00 31.3 8 Sudoeste 17 Sur 0 1010.4 -1.8 65
2017-08-05 17:00:00 31.4 12 Sudoeste 18 Sudoeste 0 1010.7 -1.9 65
2017-08-05 16:00:00 31.4 11 Sur 18 Sur 0 1011.4 -1.4 60
2017-08-05 15:00:00 31 9 Sudoeste 17 Sur 0 1012.2 -0.6 63
2017-08-05 14:00:00 31.1 12 Sur 18 Sur 0 1012.6 0 60
2017-08-05 13:00:00 31.3 14 Sur 18 Sur 0 1012.8 0.4 56
2017-08-05 12:00:00 30.5 12 Sur 15 Sur 0 1012.8 0.6 64
2017-08-05 11:00:00 30.2 8 Sur 13 Sur 0 1012.6 0.7 65
2017-08-05 10:00:00 30.1 5 Sur 8 Sur 0 1012.4 0.9 63
2017-08-05 09:00:00 28.9 0 Calma 8 Noroeste 0 1012.2 1.1 64
2017-08-05 08:00:00 25.7 3 Norte 9 Noroeste 0 1011.9 -- 63
2017-08-05 07:00:00 25.7 3 Nordeste 5 Norte 0 1011.5 -- 57
2017-08-05 06:00:00 25.5 5 Norte -- -- -- 1011.1 -- 60
2017-08-05 05:00:00 -- -- -- -- -- -- -- -- --
2017-08-05 04:00:00 -- -- -- -- -- -- -- -- --
2017-08-05 03:00:00 -- -- -- -- -- -- -- -- --
2017-08-05 02:00:00 -- -- -- -- -- -- -- -- --
2017-08-05 01:00:00 26.9 3 Nordeste -- -- 0 1011.8 0.6 79
2017-08-05 00:00:00 27.3 0 Calma 2 Este 0 1011.9 1.3 83
2017-08-04 23:00:00 27.6 0 Calma -- -- 0 1011.9 1.5 81
2017-08-04 22:00:00 28 0 Calma 5 Sur 0 1011.2 0.9 79
2017-08-04 21:00:00 28.8 3 Sur 11 Sur 0 1010.6 -0.1 76
2017-08-04 20:00:00 30.2 5 Sur 13 Sur 0 1010.4 -0.5 67
2017-08-04 19:00:00 30.7 6 Sur 13 Sudoeste 0 1010.3 -1 61
2017-08-04 18:00:00 31 7 Sur 17 Sur 0 1010.7 -1 60
2017-08-04 17:00:00 31.6 12 Sur 18 Sur 0 1010.9 -1.2 59
2017-08-04 16:00:00 31.3 10 Sur 17 Sur 0 1011.3 -1.3 60
2017-08-04 15:00:00 31.1 10 Sur 18 Sudoeste 0 1011.7 -1 62
2017-08-04 14:00:00 30.6 11 Sur 18 Sur 0 1012.1 -0.6 66
2017-08-04 13:00:00 30.1 10 Sudoeste 18 Sudoeste 0 1012.6 0.4 71
2017-08-04 12:00:00 30.2 9 Sur 15 Sudoeste 0 1012.7 0.8 59
2017-08-04 11:00:00 29.2 10 Sur 15 Sur 0 1012.7 1.5 66
2017-08-04 10:00:00 28.4 4 Sur 8 Sur 0 1012.2 1.4 66
2017-08-04 09:00:00 27.5 0 Calma 5 Nordeste 0 1011.9 1.1 71
2017-08-04 08:00:00 24.5 4 Este 8 Norte 0 1011.2 0 72
2017-08-04 07:00:00 24 3 Oeste 8 Oeste 0 1010.8 -0.5 68
2017-08-04 06:00:00 24.5 0 Calma 5 Norte 0 1010.8 -0.8 71
2017-08-04 05:00:00 24.4 3 Nordeste 13 Nordeste 0 1011.2 -0.9 75
2017-08-04 04:00:00 24.6 8 Nordeste 13 Nordeste 0 1011.3 -1.2 75
2017-08-04 03:00:00 25.2 0 Calma 4 Oeste 0 1011.6 -1.1 80
2017-08-04 02:00:00 25.6 0 Calma 5 Sudoeste 0 1012.1 -0.2 71
2017-08-04 01:00:00 26.4 4 Sudoeste 8 Sudoeste 0 1012.5 0.9 80
2017-08-04 00:00:00 26.8 4 Sur 8 Sudeste 0 1012.7 1.4 73
2017-08-03 23:00:00 27.4 5 Sudeste 8 Sudeste 0 1012.3 1.4 71
2017-08-03 22:00:00 28.1 0 Calma 4 Sudeste 0 1011.6 0.5 66
2017-08-03 21:00:00 29.5 2 Sur 9 Sur 0 1011.3 -0.2 57
2017-08-03 20:00:00 30.1 6 Sur 18 Sudoeste 0 1010.9 -1.2 55
2017-08-03 19:00:00 30.3 13 Sudoeste 18 Sudoeste 0 1011.1 -1.4 59
2017-08-03 18:00:00 30.6 12 Sudoeste 18 Sudoeste 0 1011.5 -1.5 58
2017-08-03 17:00:00 30.8 12 Sur 18 Sur 0 1012.1 -1.5 59
2017-08-03 16:00:00 30.7 12 Sur 21 Sudoeste 0 1012.5 -1.5 62
2017-08-03 15:00:00 30.5 11 Sur 17 Sudoeste 0 1013 -1.3 64
2017-08-03 14:00:00 30.1 12 Sur 18 Sur 0 1013.6 -0.8 69
2017-08-03 13:00:00 29.6 13 Sudoeste 18 Sur 0 1014 -0.2 71
2017-08-03 12:00:00 29.1 12 Sudoeste 17 Sudoeste 0 1014.3 0.5 76
2017-08-03 11:00:00 28.4 9 Sur 15 Sur 0 1014.4 1 79
2017-08-03 10:00:00 28.3 5 Sur 11 Sur 0 1014.2 1.2 79
2017-08-03 09:00:00 27 3 Este 13 Este 0 1013.8 1.2 84
2017-08-03 08:00:00 25.1 6 Nordeste 11 Este 0 1013.4 0.9 85
2017-08-03 07:00:00 25.5 4 Este 8 Norte 0 1013 0.4 86
2017-08-03 06:00:00 25.6 4 Nordeste 5 Nordeste 0 1012.6 -0.2 86
2017-08-03 05:00:00 25.6 0 Calma 13 Este 0 1012.5 -0.5 90
2017-08-03 04:00:00 25.6 6 Sudeste 13 Este 0 1012.6 -1.1 87
2017-08-03 03:00:00 26.1 0 Calma 5 Sur 0 1012.8 -0.8 91
2017-08-03 02:00:00 26.8 3 Sudoeste 13 Sudeste 0 1013 -0.8 84
2017-08-03 01:00:00 26.9 10 Sudeste 15 Sudeste 0 1013.7 0.4 89
2017-08-03 00:00:00 27.4 5 Sudoeste 8 Sudoeste 0 1013.6 0.9 85
2017-08-02 23:00:00 27.6 0 Calma 2 Sur 0 1013.8 1.9 82
2017-08-02 22:00:00 27.7 0 Calma 2 Sudoeste 0 1013.3 1.8 81
2017-08-02 21:00:00 28.2 2 Sudoeste 9 Sudoeste 0 1012.7 1.2 81
2017-08-02 20:00:00 28.7 6 Sudoeste 15 Sudoeste 0 1011.9 0.3 77
2017-08-02 19:00:00 29.3 8 Sudoeste -- -- -- 1011.5 -0.7 75
2017-08-02 18:00:00 29.8 13 Sudoeste 21 Sudoeste 0 1011.5 -1 74
2017-08-02 17:00:00 30.6 16 Sudoeste 22 Sudoeste 0 1011.6 -1.2 69
2017-08-02 16:00:00 31.1 14 Sur 18 Sur 0 1012.2 -0.7 67
2017-08-02 15:00:00 31.6 13 Sur 21 Sudoeste 0 1012.5 -0.5 63
2017-08-02 14:00:00 29.7 15 Sudoeste 22 Sudoeste 0 1012.8 -0.1 71
2017-08-02 13:00:00 29.9 15 Sudoeste 21 Sudoeste 0 1012.9 0.2 69
2017-08-02 12:00:00 29.5 16 Sudoeste 21 Sur 0 1013 0.3 69
2017-08-02 11:00:00 29 14 Sudoeste 18 Sudoeste 0 1012.9 0.8 74
2017-08-02 10:00:00 29.4 3 Sur 11 Sur 0 1012.7 1.5 65
2017-08-02 09:00:00 27.4 0 Calma 18 Oeste 0 1012.7 0.8 73
2017-08-02 08:00:00 27.8 14 Noroeste 28 Norte 0 1012.1 0 61
2017-08-02 07:00:00 26.8 3 Norte 17 Norte 0 1011.2 -0.8 70
2017-08-02 06:00:00 26.2 2 Norte 8 Noroeste 0 1011.9 -0.8 78
2017-08-02 05:00:00 26.4 2 Oeste 15 Oeste 0 1012.1 0.1 76
2017-08-02 04:00:00 26.4 0 Calma 17 Sudoeste 0 1012 0 79
2017-08-02 03:00:00 27.7 0 Calma 13 Este 0 1012.7 -1.2 68
2017-08-02 02:00:00 27.2 13 Este 22 Norte 0 1012 -0.8 77
2017-08-02 01:00:00 27.5 14 Nordeste 28 Este 0 1012 -0.8 72
2017-08-02 00:00:00 27.2 18 Oeste 45 Sudoeste 0 1013.9 2.7 72
2017-08-01 23:00:00 29 7 Norte 46 Este 0 1012.8 1.4 69
2017-08-01 22:00:00 28.1 8 Sudeste 15 Sudeste 0 1012.8 1.8 71
2017-08-01 21:00:00 28.5 4 Este 15 Este 0 1011.2 0.8 64
2017-08-01 20:00:00 27.1 0 Calma 13 Sur 0 1011.4 2 72
2017-08-01 19:00:00 27.6 3 Sudeste 15 Sur 0 1011 1.7 72
2017-08-01 18:00:00 28.1 11 Sur 18 Sur 0 1010.4 0.6 68
2017-08-01 17:00:00 27.6 9 Sudoeste 26 Sur 0 1009.4 -0.3 70
2017-08-01 16:00:00 28.6 12 Sudoeste 28 Sur 0 1009.3 -0.3 72
2017-08-01 15:00:00 28.3 13 Sudoeste 24 Sudoeste 0 1009.8 0.6 73
2017-08-01 14:00:00 29 11 Sur 21 Sudoeste 0 1009.7 0.6 72
2017-08-01 13:00:00 29 17 Sudoeste 22 Sudoeste 0 1009.6 1.3 72
2017-08-01 12:00:00 28.7 15 Sudoeste 22 Sur 0 1009.2 1 73
2017-08-01 11:00:00 28.4 11 Sur 24 Sudeste 0 1009.1 1 75
2017-08-01 10:00:00 29.3 2 Noroeste 18 Noroeste 0 1008.3 0.2 58
2017-08-01 09:00:00 26.4 4 Noroeste 13 Noroeste 0 1008.2 0.5 79
2017-08-01 08:00:00 25.3 2 Norte 8 Norte 0 1008.1 1.8 83
2017-08-01 07:00:00 25.4 2 Este 13 Sur 0 1008.1 0.1 87
2017-08-01 06:00:00 26 13 Sur 30 Noroeste 0 1007.7 -1.1 85
2017-08-01 05:00:00 25.5 8 Oeste 18 Sur 0 1006.3 -1.5 84
2017-08-01 04:00:00 25.8 10 Sur 18 Sur 0 1008 1.1 86
2017-08-01 03:00:00 26.1 6 Sudoeste 28 Sur 0 1008.8 1.1 86
2017-08-01 02:00:00 26.3 9 Nordeste 18 Nordeste 0 1007.8 -0.2 81
2017-08-01 01:00:00 26.3 9 Sudeste 15 Sudeste 0 1006.9 0.1 79
2017-08-01 00:00:00 26.5 11 Sudoeste 17 Sudoeste 0 1007.7 0.6 84
2017-07-31 23:00:00 26.8 4 Sur 5 Sur 0 1008 1.3 81
2017-07-31 22:00:00 26.9 0 Calma 8 Noroeste 0 1006.8 1.2 77
2017-07-31 21:00:00 27.4 4 Sudoeste 15 Sudoeste 0 1007.1 1.5 77
2017-07-31 20:00:00 28.3 10 Sur 17 Sudoeste 0 1006.7 1 76
2017-07-31 19:00:00 29.3 12 Sur 17 Sur 0 1005.6 -1 72
2017-07-31 18:00:00 29.5 9 Sur 17 Sudoeste 0 1005.6 -1.8 70
2017-07-31 17:00:00 29.9 13 Sur 18 Sur 0 1005.7 -1.5 70
2017-07-31 16:00:00 30 11 Sudoeste 21 Sudoeste 0 1006.6 -0.8 68
2017-07-31 15:00:00 29.9 12 Sur 18 Sudoeste 0 1007.4 -0.3 70
2017-07-31 14:00:00 29.7 8 Sur 18 Sudoeste 0 1007.2 -0.2 72
2017-07-31 13:00:00 29.2 12 Sur 21 Sudoeste 0 1007.4 0 72
2017-07-31 12:00:00 28.9 15 Sudoeste 21 Sudoeste 0 1007.7 0.2 74
2017-07-31 11:00:00 28.5 9 Sur 15 Sur 0 1007.4 0.1 74
2017-07-31 10:00:00 28.5 3 Oeste 11 Noroeste 0 1007.4 0.5 68
2017-07-31 09:00:00 26.9 0 Calma 5 Noroeste 0 1007.5 1.3 80
2017-07-31 08:00:00 25.1 4 Norte 8 Norte 0 1007.3 0.7 74
2017-07-31 07:00:00 24.6 3 Norte 11 Noroeste 0 1006.9 0.6 77
2017-07-31 06:00:00 24.9 5 Noroeste 15 Noroeste 0 1006.2 -0.4 84
2017-07-31 05:00:00 25.1 6 Norte 11 Norte 0 1006.6 -1 66
2017-07-31 04:00:00 25.4 3 Nordeste 18 Este 0 1006.3 -2.2 57
2017-07-31 03:00:00 26.1 8 Norte 18 Norte 0 1006.6 -2.3 64
2017-07-31 02:00:00 25.5 4 Nordeste 15 Norte 0 1007.6 -0.9 73
2017-07-31 01:00:00 25.6 0 Calma 9 Oeste 0 1008.5 0.6 76
2017-07-31 00:00:00 26.4 6 Sudoeste 17 Sur 0 1008.9 2.1 78
2017-07-30 23:00:00 26.6 3 Sur 5 Sur 0 1008.5 2.1 74
2017-07-30 22:00:00 27.1 3 Oeste 17 Sudoeste 0 1007.9 1.2 72
2017-07-30 21:00:00 28.6 6 Sudoeste 13 Sudoeste 0 1006.8 -0.6 68
2017-07-30 20:00:00 30.6 8 Sudoeste 13 Sudoeste 0 1006.4 -1.7 53
2017-07-30 19:00:00 31.3 4 Sur 15 Sur 0 1006.7 -2.2 42
2017-07-30 18:00:00 31.2 9 Sur 21 Sudoeste 0 1007.4 -1.9 53
2017-07-30 17:00:00 30.4 15 Sudoeste 21 Sur 0 1008.1 -1.9 58
2017-07-30 16:00:00 30.3 13 Sur 21 Sur 0 1008.9 -1.5 59
2017-07-30 15:00:00 30.5 12 Sudoeste 18 Sudoeste 0 1009.3 -1.3 51
2017-07-30 14:00:00 29.4 14 Sur 21 Sudoeste 0 1010 -0.3 68
2017-07-30 13:00:00 29.3 13 Sur 18 Sudoeste 0 1010.4 -0.1 71
2017-07-30 12:00:00 29.4 13 Sur 18 Sur 0 1010.6 0.1 72
2017-07-30 11:00:00 28.8 9 Sur 13 Sur 0 1010.3 0 75
2017-07-30 10:00:00 29.1 5 Sur 17 Sudeste 0 1010.5 0.3 57
2017-07-30 09:00:00 28 3 Sudeste 24 Noroeste 0 1010.5 0 52
2017-07-30 08:00:00 25.6 13 Norte 21 Noroeste 0 1010.3 -0.4 66
2017-07-30 07:00:00 24.4 10 Norte 17 Norte 0 1010.2 -0.9 82
2017-07-30 06:00:00 24.1 5 Norte 11 Norte 0 1010.5 -0.2 84
2017-07-30 05:00:00 24.6 0 Calma 8 Nordeste 0 1010.7 -0.3 81
2017-07-30 04:00:00 24.6 4 Nordeste 11 Nordeste 0 1011.1 -0.6 84
2017-07-30 03:00:00 25.1 8 Nordeste 13 Nordeste 0 1010.7 -1.7 85
2017-07-30 02:00:00 25.4 3 Este 5 Norte 0 1011 -1.2 82
2017-07-30 01:00:00 26.2 0 Calma 5 Noroeste 0 1011.7 0.1 84
2017-07-30 00:00:00 26.4 0 Calma 8 Sudoeste 0 1012.4 1.2 86
2017-07-29 23:00:00 26.7 4 Sur 5 Sur 0 1012.2 1.1 84
2017-07-29 22:00:00 26.9 4 Sudoeste 8 Sudoeste 0 1011.6 0.3 86
2017-07-29 21:00:00 27.9 4 Sudoeste 13 Oeste 0 1011.2 -0.5 82
2017-07-29 20:00:00 29 6 Sudoeste -- -- -- 1011.1 -1 77
2017-07-29 19:00:00 29.6 9 Sur 17 Sur 0 1011.3 -1.3 75
2017-07-29 18:00:00 29.7 8 Sur 18 Sur 0 1011.7 -1.6 76
2017-07-29 17:00:00 30.1 12 Sur 18 Sudoeste 0 1012.1 -1.7 75
2017-07-29 16:00:00 30 12 Sur 21 Sudoeste 0 1012.6 -1.3 75
2017-07-29 15:00:00 30.1 13 Sur 21 Sur 0 1013.3 -0.4 72
2017-07-29 14:00:00 30 14 Sudoeste 21 Sur 0 1013.8 0.2 69
2017-07-29 13:00:00 30 13 Sudoeste 18 Sudoeste 0 1013.9 0.8 66
2017-07-29 12:00:00 29.9 13 Sudoeste 18 Sur 0 1013.7 0.7 61
2017-07-29 11:00:00 30.1 10 Sudoeste 15 Sur 0 1013.6 0.9 56
2017-07-29 10:00:00 30.8 3 Sur 17 Noroeste 0 1013.1 0.7 47
2017-07-29 09:00:00 27.3 3 Este 5 Sudeste 0 1013 0.4 57
2017-07-29 08:00:00 23.8 4 Este 8 Sudeste 0 1012.7 0.2 60
2017-07-29 07:00:00 24 2 Noroeste -- -- 0 1012.4 0.3 72
2017-07-29 06:00:00 24 4 Norte 11 Norte 0 1012.6 0.5 69
2017-07-29 05:00:00 24.5 2 Este 5 Este 0 1012.5 0.2 62
2017-07-29 04:00:00 25.1 0 Calma 5 Nordeste 0 1012.1 -0.3 62
2017-07-29 03:00:00 24.7 4 Nordeste 8 Nordeste 0 1012.1 -0.2 70
2017-07-29 02:00:00 25.5 2 Noroeste 4 Noroeste 0 1012.3 0.1 75
2017-07-29 01:00:00 25.8 0 Calma -- -- -- 1012.4 1 71
2017-07-29 00:00:00 26.1 2 Sudeste -- -- 0 1012.3 1.3 78
2017-07-28 23:00:00 26.3 3 Sudeste 5 Sudeste 0 1012.2 1.2 77
2017-07-28 22:00:00 26.9 2 Sur 8 Sur 0 1011.4 0.5 75
2017-07-28 21:00:00 27.9 3 Sur 11 Sudoeste 0 1011 -0.1 72
2017-07-28 20:00:00 28.9 9 Sudoeste 18 Sudoeste 0 1011 -0.5 63
2017-07-28 19:00:00 29.7 14 Sudoeste 21 Sudoeste 0 1010.9 -0.8 55
2017-07-28 18:00:00 29.9 11 Sudoeste 18 Sur 0 1011.1 -0.8 62
2017-07-28 17:00:00 29.8 12 Sur 17 Sur 0 1011.5 -0.9 63
2017-07-28 16:00:00 29.9 10 Sur 17 Sur 0 1011.7 -0.7 66
2017-07-28 15:00:00 30.1 11 Sur 18 Sudoeste 0 1011.9 -0.5 63
2017-07-28 14:00:00 29.1 15 Sur 21 Sur 0 1012.4 0.1 70
2017-07-28 13:00:00 29.7 13 Sur 18 Sudoeste 0 1012.4 0.4 66
2017-07-28 12:00:00 28.6 13 Sudoeste 18 Sudoeste 0 1012.4 1.3 70
2017-07-28 11:00:00 28.2 12 Sudoeste 18 Sudoeste 0 1012.3 1.4 75
2017-07-28 10:00:00 28.8 8 Sur 15 Sur 0 1012 0.7 64
2017-07-28 09:00:00 27 2 Este 8 Este 0 1011.1 -0.2 61
2017-07-28 08:00:00 23.9 5 Nordeste 8 Norte 0 1010.9 -0.3 73
2017-07-28 07:00:00 23.2 0 Calma 5 Norte 0 1011.3 0.1 78
2017-07-28 06:00:00 23.5 0 Calma 5 Norte 0 1011.3 0 74
2017-07-28 05:00:00 23.8 3 Nordeste 8 Norte 0 1011.2 -0.5 72
2017-07-28 04:00:00 24.1 3 Sur 11 Noroeste 0 1011.2 -0.8 77
2017-07-28 03:00:00 24.2 5 Noroeste 11 Nordeste 0 1011.3 -0.3 74
2017-07-28 02:00:00 25 8 Nordeste 13 Nordeste 0 1011.7 0.3 87
2017-07-28 01:00:00 25.3 3 Sur 5 Sur 0 1012 1.1 87
2017-07-28 00:00:00 25.6 0 Calma 4 Sur 0 1011.6 1.3 85
2017-07-27 23:00:00 25.9 0 Calma 8 Sudoeste 0 1011.4 1.1 87
2017-07-27 22:00:00 26.3 5 Sudoeste 8 Sudoeste 0 1010.9 0.3 85
2017-07-27 21:00:00 27.3 5 Sur 11 Sudoeste 0 1010.3 -0.8 77
2017-07-27 20:00:00 28.4 6 Sudoeste 13 Sudoeste 0 1010.3 -1.2 72
2017-07-27 19:00:00 29 9 Sur 17 Sudoeste 0 1010.6 -1.4 71
2017-07-27 18:00:00 29.2 9 Sur 17 Sur 0 1011.1 -1.3 71
2017-07-27 17:00:00 29.6 10 Sur 18 Sur 0 1011.5 -1.5 71
2017-07-27 16:00:00 29.5 13 Sur 21 Sur 0 1012 -1.3 69
2017-07-27 15:00:00 29.4 13 Sur 18 Sur 0 1012.4 -1 67
2017-07-27 14:00:00 29.2 13 Sur 21 Sudoeste 0 1013 -0.4 71
2017-07-27 13:00:00 28.9 15 Sudoeste 22 Sudoeste 0 1013.3 -0.2 72
2017-07-27 12:00:00 28.4 13 Sur 18 Sur 0 1013.4 0.2 69
2017-07-27 11:00:00 28.8 8 Sur 13 Sur 0 1013.4 0.6 58
2017-07-27 10:00:00 27.9 4 Sur 8 Sudoeste 0 1013.5 1.1 63
2017-07-27 09:00:00 26.8 0 Calma 5 Noroeste 0 1013.2 0.8 66
2017-07-27 08:00:00 24.1 0 Calma 4 Norte 0 1012.8 0.5 79
2017-07-27 07:00:00 24.1 0 Calma 8 Nordeste 0 1012.4 0 78
2017-07-27 06:00:00 24 4 Nordeste 8 Nordeste 0 1012.4 -0.2 82
2017-07-27 05:00:00 24.3 2 Este 4 Este 0 1012.3 -0.4 81
2017-07-27 04:00:00 24.8 0 Calma 4 Norte 0 1012.4 -0.1 82
2017-07-27 03:00:00 25.2 0 Calma 2 Noroeste 0 1012.6 0 87
2017-07-27 02:00:00 25.3 2 Sur 4 Sudoeste 0 1012.7 0.6 86
2017-07-27 01:00:00 25.6 0 Calma 4 Sudoeste 0 1012.5 0.9 84
2017-07-27 00:00:00 25.8 2 Sudoeste 4 Sudoeste 0 1012.6 1.5 83
2017-07-26 23:00:00 26 0 Calma 5 Sudoeste 0 1012.1 1.6 83
2017-07-26 22:00:00 26.1 3 Sudoeste 11 Sudoeste 0 1011.6 1 81
2017-07-26 21:00:00 26.8 6 Sudoeste 11 Sur 0 1011.1 0.2 79
2017-07-26 20:00:00 27.7 6 Sur 15 Sur 0 1010.5 -0.9 75
2017-07-26 19:00:00 28.4 10 Sur 18 Sudoeste 0 1010.6 -1.3 73
2017-07-26 18:00:00 28.5 13 Sur 21 Sudoeste 0 1010.9 -1.2 72
2017-07-26 17:00:00 29 14 Sur 21 Sur 0 1011.4 -1 70
2017-07-26 16:00:00 29.3 15 Sur 22 Sur 0 1011.9 -0.6 71
2017-07-26 15:00:00 29.4 15 Sur 22 Sudoeste 0 1012.1 -0.4 68
2017-07-26 14:00:00 29.1 16 Sur 22 Sur 0 1012.4 0.1 69
2017-07-26 13:00:00 29.1 17 Sudoeste 22 Sur 0 1012.5 0.1 69
2017-07-26 12:00:00 29.3 18 Sur 22 Sur 0 1012.5 0.5 68
2017-07-26 11:00:00 29.4 9 Sudoeste 13 Sur 0 1012.3 0.7 63
2017-07-26 10:00:00 29.1 6 Sur 15 Norte 0 1012.4 1.1 64
2017-07-26 09:00:00 27.3 9 Nordeste 37 Norte 0 1012 1.1 70
2017-07-26 08:00:00 25.7 9 Nordeste 15 Norte 0 1011.6 0.7 76
2017-07-26 07:00:00 25.5 10 Este 17 Este 0 1011.3 0 79
2017-07-26 06:00:00 24.9 3 Nordeste 9 Nordeste 0 1010.9 -0.6 81
2017-07-26 05:00:00 25.4 4 Este 18 Este 0 1010.9 -0.5 80
2017-07-26 04:00:00 26.2 14 Este 21 Este 0 1011.3 -0.1 78
2017-07-26 03:00:00 26.3 9 Este 15 Este 0 1011.5 0.6 78
2017-07-26 02:00:00 26.3 9 Este 21 Este 0 1011.4 0.7 76
2017-07-26 01:00:00 26.3 13 Este 21 Este 0 1011.4 1.4 75
2017-07-26 00:00:00 26.6 10 Este 21 Este 0 1010.9 1.4 74
2017-07-25 23:00:00 27.1 11 Este 18 Este 0 1010.7 1.5 73
2017-07-25 22:00:00 27.5 12 Este 21 Este 0 1010 0.6 70
2017-07-25 21:00:00 27.6 7 Sudoeste 28 Norte 0 1009.5 0 76
2017-07-25 20:00:00 28 14 Sur 22 Sur 0 1009.2 -0.5 75
2017-07-25 19:00:00 28.5 19 Sur 28 Sur 0 1009.4 -0.8 74
2017-07-25 18:00:00 28.8 23 Sur 30 Sur 0 1009.5 -1.2 72
2017-07-25 17:00:00 30.7 19 Sur 28 Sur 0 1009.7 -1.2 63
2017-07-25 16:00:00 30.4 21 Sur 32 Sur 0 1010.2 -0.9 65
2017-07-25 15:00:00 32.3 23 Sudeste 35 Sudeste 0 1010.7 -0.7 52
2017-07-25 14:00:00 33 25 Sudeste 41 Sudeste 0 1010.9 -0.4 43
2017-07-25 13:00:00 33.4 25 Este 39 Sudeste 0 1011.1 -0.4 44
2017-07-25 12:00:00 32.7 23 Este 37 Este 0 1011.4 0.1 40
2017-07-25 11:00:00 31.1 25 Este 35 Este 0 1011.3 0.2 47
2017-07-25 10:00:00 29.1 6 Sur 22 Norte 0 1011.5 0.5 53
2017-07-25 09:00:00 26.9 6 Norte 22 Noroeste 0 1011.3 0.4 60
2017-07-25 08:00:00 24.8 9 Norte 15 Norte 0 1011.1 0.1 65
2017-07-25 07:00:00 23.2 9 Nordeste 17 Nordeste 0 1011 -0.6 66
2017-07-25 06:00:00 24.4 4 Norte 18 Norte 0 1010.9 -1.1 60
2017-07-25 05:00:00 23.9 11 Nordeste 18 Nordeste 0 1011 -1.4 79
2017-07-25 04:00:00 23.9 10 Nordeste 17 Norte 0 1011.6 -1 77
2017-07-25 03:00:00 23.8 2 Norte 9 Norte 0 1012 -0.8 80
2017-07-25 02:00:00 23.8 6 Norte 8 Norte 0 1012.4 0 84
2017-07-25 01:00:00 24.2 3 Nordeste 5 Nordeste 0 1012.6 1 85
2017-07-25 00:00:00 24.6 2 Sur 5 Sur 0 1012.8 1.5 87
2017-07-24 23:00:00 24.8 6 Sudeste 11 Sur 0 1012.4 1.2 85
2017-07-24 22:00:00 25.2 3 Sur 8 Sur 0 1011.6 0.3 84
2017-07-24 21:00:00 26.4 2 Sudeste 11 Sur 0 1011.3 -0.2 73
2017-07-24 20:00:00 27.9 5 Sur 13 Sur 0 1011.2 -0.9 67
2017-07-24 19:00:00 27.8 6 Sur 15 Sudoeste 0 1011.3 -1.2 69
2017-07-24 18:00:00 27.8 7 Sur 17 Sudoeste 0 1011.5 -1.5 67
2017-07-24 17:00:00 28.1 10 Sur 17 Sur 0 1012.1 -1.2 64
2017-07-24 16:00:00 28.4 13 Sur 21 Sur 0 1012.5 -1.3 62
2017-07-24 15:00:00 28.4 13 Sur 21 Sur 0 1013 -1.1 61
2017-07-24 14:00:00 27.9 13 Sur 18 Sur 0 1013.3 -0.7 63
2017-07-24 13:00:00 27.6 11 Sur 17 Sur 0 1013.8 -0.3 65
2017-07-24 12:00:00 26.8 10 Sur 15 Sudoeste 0 1014.1 0.1 67
2017-07-24 11:00:00 26.4 8 Sur 15 Sur 0 1014 0.3 69
2017-07-24 10:00:00 25.7 5 Sur 11 Sur 0 1014.1 0.8 75
2017-07-24 09:00:00 24.7 0 Calma 15 Noroeste 0 1014 0.7 75
2017-07-24 08:00:00 21.6 5 Noroeste 15 Noroeste 0 1013.7 0.4 64
2017-07-24 07:00:00 20.4 6 Noroeste 11 Noroeste 0 1013.3 0 76
2017-07-24 06:00:00 21.2 4 Norte 5 Norte 0 1013.3 -0.6 73
2017-07-24 05:00:00 21.8 2 Nordeste 5 Norte 0 1013.3 -1.1 68
2017-07-24 04:00:00 22.5 0 Calma 11 Norte 0 1013.3 -1.5 83
2017-07-24 03:00:00 23.4 5 Norte 8 Norte 0 1013.9 -0.8 87
2017-07-24 02:00:00 23.4 5 Norte 8 Norte 0 1014.4 0 86
2017-07-24 01:00:00 23.7 0 Calma 8 Este 0 1014.8 0.9 86
2017-07-24 00:00:00 24 2 Este 5 Este 0 1014.7 1.1 84
2017-07-23 23:00:00 24.4 3 Sudeste 5 Sudeste 0 1014.4 1.2 81
2017-07-23 22:00:00 24.9 0 Calma 8 Sur 0 1013.9 0.8 81
2017-07-23 21:00:00 25.8 4 Sudoeste 9 Sudoeste 0 1013.6 0.5 73
2017-07-23 20:00:00 26.9 6 Sudoeste 13 Sudoeste 0 1013.2 -0.1 71
2017-07-23 19:00:00 27.7 9 Sur 15 Sur 0 1013.1 -0.7 65
2017-07-23 18:00:00 27.6 8 Sur 17 Sudoeste 0 1013.1 -1.3 63
2017-07-23 17:00:00 28.2 12 Sur 21 Sur 0 1013.3 -1.7 62
2017-07-23 16:00:00 28.4 13 Sur 18 Sur 0 1013.8 -- 62
2017-07-23 15:00:00 28.4 8 Sur 21 Sur 0 1014.4 -0.5 64
2017-07-23 14:00:00 28.2 14 Sudoeste -- -- -- 1015 0.9 69
2017-07-23 13:00:00 -- -- -- -- -- -- -- -- --
2017-07-23 12:00:00 27.9 14 Sur 18 Sur 0 1014.9 0.4 72
2017-07-23 11:00:00 27.8 7 Sudoeste 13 Sudoeste 0 1014.1 1.1 70
2017-07-23 10:00:00 27.2 2 Sudeste 11 Sudeste 0 1014.3 1.4 71
2017-07-23 09:00:00 25.2 3 Sur 8 Sudeste 0 1014.5 1.6 79
2017-07-23 08:00:00 24.3 0 Calma 8 Nordeste 0 1013 -0.2 83
2017-07-23 07:00:00 24.4 3 Sudeste 13 Sur 0 1012.9 0.6 82
2017-07-23 06:00:00 24.5 5 Sur 18 Sur 0 1012.9 0.3 83
2017-07-23 05:00:00 24.8 13 Sur 21 Sur 0 1013.2 1.3 83
2017-07-23 04:00:00 25.6 8 Oeste 13 Oeste 0 1012.3 0.4 67
2017-07-23 03:00:00 25.8 12 Este 35 Norte 0 1012.6 -1.1 60
2017-07-23 02:00:00 27.2 24 Noroeste 42 Noroeste 0 1011.9 -2 42
2017-07-23 01:00:00 25.1 31 Noroeste 42 Noroeste 0 1011.9 -0.6 67
2017-07-23 00:00:00 23.8 7 Noroeste 13 Noroeste 0 1013.7 2.3 81